sensor_id;sensor_type;location;lat;lon;timestamp;P1;durP1;ratioP1;P2;durP2;ratioP2
69736;SDS011;64476;55.004;73.342;2023-05-07T00:00:30;110.88;;;30.55;;
69736;SDS011;64476;55.004;73.342;2023-05-07T00:03:32;87.50;;;27.13;;
69736;SDS011;64476;55.004;73.342;2023-05-07T00:06:34;89.07;;;27.37;;
69736;SDS011;64476;55.004;73.342;2023-05-07T00:09:36;96.30;;;28.80;;
69736;SDS011;64476;55.004;73.342;2023-05-07T00:12:38;104.53;;;28.98;;
69736;SDS011;64476;55.004;73.342;2023-05-07T00:15:41;104.10;;;29.42;;
69736;SDS011;64476;55.004;73.342;2023-05-07T00:18:43;106.78;;;29.10;;
69736;SDS011;64476;55.004;73.342;2023-05-07T00:21:45;72.37;;;27.60;;
69736;SDS011;64476;55.004;73.342;2023-05-07T00:24:47;88.80;;;27.10;;
69736;SDS011;64476;55.004;73.342;2023-05-07T00:27:49;84.47;;;26.88;;
69736;SDS011;64476;55.004;73.342;2023-05-07T00:30:51;96.60;;;26.80;;
69736;SDS011;64476;55.004;73.342;2023-05-07T00:33:53;111.28;;;28.52;;
69736;SDS011;64476;55.004;73.342;2023-05-07T00:36:55;76.63;;;25.20;;
69736;SDS011;64476;55.004;73.342;2023-05-07T00:39:57;73.32;;;24.23;;
69736;SDS011;64476;55.004;73.342;2023-05-07T00:43:00;80.47;;;24.48;;
69736;SDS011;64476;55.004;73.342;2023-05-07T00:46:01;44.05;;;17.42;;
69736;SDS011;64476;55.004;73.342;2023-05-07T00:49:03;35.08;;;14.30;;
69736;SDS011;64476;55.004;73.342;2023-05-07T00:52:06;26.90;;;13.38;;
69736;SDS011;64476;55.004;73.342;2023-05-07T00:55:09;49.45;;;14.77;;
69736;SDS011;64476;55.004;73.342;2023-05-07T00:58:11;24.98;;;11.18;;
69736;SDS011;64476;55.004;73.342;2023-05-07T01:01:12;34.05;;;12.48;;
69736;SDS011;64476;55.004;73.342;2023-05-07T01:04:16;38.90;;;12.68;;
69736;SDS011;64476;55.004;73.342;2023-05-07T01:07:18;30.23;;;12.75;;
69736;SDS011;64476;55.004;73.342;2023-05-07T01:10:20;36.65;;;12.52;;
69736;SDS011;64476;55.004;73.342;2023-05-07T01:13:31;32.40;;;12.93;;
69736;SDS011;64476;55.004;73.342;2023-05-07T01:16:34;71.07;;;14.82;;
69736;SDS011;64476;55.004;73.342;2023-05-07T01:19:37;28.48;;;12.85;;
69736;SDS011;64476;55.004;73.342;2023-05-07T01:22:39;46.35;;;13.52;;
69736;SDS011;64476;55.004;73.342;2023-05-07T01:25:43;35.95;;;14.23;;
69736;SDS011;64476;55.004;73.342;2023-05-07T01:28:46;44.90;;;14.05;;
69736;SDS011;64476;55.004;73.342;2023-05-07T01:31:47;41.65;;;12.18;;
69736;SDS011;64476;55.004;73.342;2023-05-07T01:35:01;46.60;;;11.73;;
69736;SDS011;64476;55.004;73.342;2023-05-07T01:38:06;33.17;;;12.40;;
69736;SDS011;64476;55.004;73.342;2023-05-07T01:41:09;88.50;;;17.70;;
69736;SDS011;64476;55.004;73.342;2023-05-07T01:44:13;79.20;;;15.83;;
69736;SDS011;64476;55.004;73.342;2023-05-07T01:47:16;76.87;;;16.03;;
69736;SDS011;64476;55.004;73.342;2023-05-07T01:50:18;78.82;;;15.65;;
69736;SDS011;64476;55.004;73.342;2023-05-07T01:53:21;46.43;;;14.07;;
69736;SDS011;64476;55.004;73.342;2023-05-07T01:56:24;35.53;;;13.70;;
69736;SDS011;64476;55.004;73.342;2023-05-07T01:59:26;64.38;;;13.40;;
69736;SDS011;64476;55.004;73.342;2023-05-07T02:02:27;43.38;;;13.50;;
69736;SDS011;64476;55.004;73.342;2023-05-07T02:05:32;45.38;;;13.05;;
69736;SDS011;64476;55.004;73.342;2023-05-07T02:08:40;46.70;;;11.77;;
69736;SDS011;64476;55.004;73.342;2023-05-07T02:11:43;41.33;;;12.13;;
69736;SDS011;64476;55.004;73.342;2023-05-07T02:14:49;60.22;;;15.98;;
69736;SDS011;64476;55.004;73.342;2023-05-07T02:18:00;47.13;;;13.80;;
69736;SDS011;64476;55.004;73.342;2023-05-07T02:21:04;66.13;;;14.43;;
69736;SDS011;64476;55.004;73.342;2023-05-07T02:24:06;61.47;;;12.73;;
69736;SDS011;64476;55.004;73.342;2023-05-07T02:30:42;97.70;;;13.88;;
69736;SDS011;64476;55.004;73.342;2023-05-07T02:33:45;45.47;;;12.53;;
69736;SDS011;64476;55.004;73.342;2023-05-07T02:36:47;59.85;;;12.80;;
69736;SDS011;64476;55.004;73.342;2023-05-07T02:39:53;44.83;;;11.48;;
69736;SDS011;64476;55.004;73.342;2023-05-07T02:42:55;206.48;;;19.75;;
69736;SDS011;64476;55.004;73.342;2023-05-07T02:46:00;121.07;;;14.90;;
69736;SDS011;64476;55.004;73.342;2023-05-07T02:49:13;106.82;;;15.32;;
69736;SDS011;64476;55.004;73.342;2023-05-07T02:52:16;68.80;;;14.10;;
69736;SDS011;64476;55.004;73.342;2023-05-07T02:55:20;57.63;;;13.23;;
69736;SDS011;64476;55.004;73.342;2023-05-07T02:58:22;67.10;;;12.38;;
69736;SDS011;64476;55.004;73.342;2023-05-07T03:01:24;80.63;;;13.67;;
69736;SDS011;64476;55.004;73.342;2023-05-07T03:04:35;76.50;;;12.70;;
69736;SDS011;64476;55.004;73.342;2023-05-07T03:07:36;61.67;;;13.07;;
69736;SDS011;64476;55.004;73.342;2023-05-07T03:10:43;71.03;;;12.27;;
69736;SDS011;64476;55.004;73.342;2023-05-07T03:13:45;41.22;;;10.00;;
69736;SDS011;64476;55.004;73.342;2023-05-07T03:16:48;63.20;;;22.37;;
69736;SDS011;64476;55.004;73.342;2023-05-07T03:19:51;52.77;;;13.53;;
69736;SDS011;64476;55.004;73.342;2023-05-07T03:22:53;41.65;;;10.02;;
69736;SDS011;64476;55.004;73.342;2023-05-07T03:25:55;33.22;;;8.90;;
69736;SDS011;64476;55.004;73.342;2023-05-07T03:28:58;50.63;;;10.97;;
69736;SDS011;64476;55.004;73.342;2023-05-07T03:31:59;64.75;;;11.13;;
69736;SDS011;64476;55.004;73.342;2023-05-07T03:35:02;49.90;;;10.23;;
69736;SDS011;64476;55.004;73.342;2023-05-07T03:38:05;53.63;;;11.32;;
69736;SDS011;64476;55.004;73.342;2023-05-07T03:41:09;38.00;;;10.38;;
69736;SDS011;64476;55.004;73.342;2023-05-07T03:44:20;40.95;;;10.70;;
69736;SDS011;64476;55.004;73.342;2023-05-07T03:47:25;55.00;;;10.90;;
69736;SDS011;64476;55.004;73.342;2023-05-07T03:50:26;39.40;;;8.57;;
69736;SDS011;64476;55.004;73.342;2023-05-07T03:53:29;71.93;;;9.07;;
69736;SDS011;64476;55.004;73.342;2023-05-07T03:56:33;34.33;;;8.60;;
69736;SDS011;64476;55.004;73.342;2023-05-07T03:59:35;47.97;;;8.50;;
69736;SDS011;64476;55.004;73.342;2023-05-07T04:02:37;45.13;;;8.80;;
69736;SDS011;64476;55.004;73.342;2023-05-07T04:05:39;49.85;;;9.02;;
69736;SDS011;64476;55.004;73.342;2023-05-07T04:08:41;35.90;;;9.13;;
69736;SDS011;64476;55.004;73.342;2023-05-07T04:11:43;29.80;;;7.97;;
69736;SDS011;64476;55.004;73.342;2023-05-07T04:15:16;28.13;;;6.82;;
69736;SDS011;64476;55.004;73.342;2023-05-07T04:18:23;33.25;;;7.25;;
69736;SDS011;64476;55.004;73.342;2023-05-07T04:21:24;23.08;;;7.00;;
69736;SDS011;64476;55.004;73.342;2023-05-07T04:24:27;51.08;;;8.75;;
69736;SDS011;64476;55.004;73.342;2023-05-07T04:27:33;32.38;;;7.85;;
69736;SDS011;64476;55.004;73.342;2023-05-07T04:30:35;23.95;;;6.80;;
69736;SDS011;64476;55.004;73.342;2023-05-07T04:33:38;35.08;;;7.38;;
69736;SDS011;64476;55.004;73.342;2023-05-07T04:36:43;39.57;;;8.00;;
69736;SDS011;64476;55.004;73.342;2023-05-07T04:39:47;26.45;;;6.63;;
69736;SDS011;64476;55.004;73.342;2023-05-07T04:42:49;28.63;;;7.22;;
69736;SDS011;64476;55.004;73.342;2023-05-07T04:45:53;55.72;;;7.03;;
69736;SDS011;64476;55.004;73.342;2023-05-07T04:49:01;30.92;;;6.32;;
69736;SDS011;64476;55.004;73.342;2023-05-07T04:55:05;20.88;;;6.13;;
69736;SDS011;64476;55.004;73.342;2023-05-07T04:58:11;26.75;;;5.60;;
69736;SDS011;64476;55.004;73.342;2023-05-07T05:01:24;23.61;;;5.81;;
69736;SDS011;64476;55.004;73.342;2023-05-07T05:04:26;17.73;;;4.22;;
69736;SDS011;64476;55.004;73.342;2023-05-07T05:07:29;33.50;;;3.75;;
69736;SDS011;64476;55.004;73.342;2023-05-07T05:10:30;41.13;;;5.88;;
69736;SDS011;64476;55.004;73.342;2023-05-07T05:13:32;9.82;;;3.42;;
69736;SDS011;64476;55.004;73.342;2023-05-07T05:17:09;13.73;;;3.22;;
69736;SDS011;64476;55.004;73.342;2023-05-07T05:20:12;18.88;;;4.10;;
69736;SDS011;64476;55.004;73.342;2023-05-07T05:23:15;16.07;;;3.47;;
69736;SDS011;64476;55.004;73.342;2023-05-07T05:29:58;14.07;;;2.95;;
69736;SDS011;64476;55.004;73.342;2023-05-07T05:36:38;14.67;;;2.43;;
69736;SDS011;64476;55.004;73.342;2023-05-07T05:43:23;54.07;;;4.37;;
69736;SDS011;64476;55.004;73.342;2023-05-07T05:49:41;5.70;;;2.50;;
69736;SDS011;64476;55.004;73.342;2023-05-07T05:52:45;9.50;;;2.55;;
69736;SDS011;64476;55.004;73.342;2023-05-07T05:55:47;17.40;;;2.40;;
69736;SDS011;64476;55.004;73.342;2023-05-07T05:58:50;13.63;;;2.43;;
69736;SDS011;64476;55.004;73.342;2023-05-07T06:01:52;20.47;;;3.53;;
69736;SDS011;64476;55.004;73.342;2023-05-07T06:04:53;18.25;;;2.72;;
69736;SDS011;64476;55.004;73.342;2023-05-07T06:07:59;22.33;;;3.20;;
69736;SDS011;64476;55.004;73.342;2023-05-07T06:11:05;8.00;;;2.42;;
69736;SDS011;64476;55.004;73.342;2023-05-07T06:14:10;14.17;;;2.40;;
69736;SDS011;64476;55.004;73.342;2023-05-07T06:17:12;20.60;;;3.67;;
69736;SDS011;64476;55.004;73.342;2023-05-07T06:20:14;15.48;;;2.80;;
69736;SDS011;64476;55.004;73.342;2023-05-07T06:23:16;6.47;;;2.25;;
69736;SDS011;64476;55.004;73.342;2023-05-07T06:26:25;7.34;;;2.36;;
69736;SDS011;64476;55.004;73.342;2023-05-07T06:29:32;9.48;;;2.50;;
69736;SDS011;64476;55.004;73.342;2023-05-07T06:32:36;14.93;;;2.58;;
69736;SDS011;64476;55.004;73.342;2023-05-07T06:35:38;26.73;;;3.30;;
69736;SDS011;64476;55.004;73.342;2023-05-07T06:38:41;7.70;;;3.00;;
69736;SDS011;64476;55.004;73.342;2023-05-07T06:41:42;6.50;;;2.13;;
69736;SDS011;64476;55.004;73.342;2023-05-07T06:44:55;24.23;;;3.08;;
69736;SDS011;64476;55.004;73.342;2023-05-07T06:47:57;23.23;;;2.95;;
69736;SDS011;64476;55.004;73.342;2023-05-07T06:51:00;4.35;;;2.47;;
69736;SDS011;64476;55.004;73.342;2023-05-07T06:54:07;15.13;;;2.73;;
69736;SDS011;64476;55.004;73.342;2023-05-07T06:57:12;17.20;;;2.80;;
69736;SDS011;64476;55.004;73.342;2023-05-07T07:00:14;18.10;;;3.22;;
69736;SDS011;64476;55.004;73.342;2023-05-07T07:03:26;7.38;;;2.83;;
69736;SDS011;64476;55.004;73.342;2023-05-07T07:06:29;12.27;;;2.63;;
69736;SDS011;64476;55.004;73.342;2023-05-07T07:09:34;15.27;;;2.38;;
69736;SDS011;64476;55.004;73.342;2023-05-07T07:12:38;10.40;;;2.50;;
69736;SDS011;64476;55.004;73.342;2023-05-07T07:15:39;19.33;;;2.92;;
69736;SDS011;64476;55.004;73.342;2023-05-07T07:18:43;18.33;;;3.17;;
69736;SDS011;64476;55.004;73.342;2023-05-07T07:21:47;13.52;;;2.53;;
69736;SDS011;64476;55.004;73.342;2023-05-07T07:24:49;10.43;;;2.25;;
69736;SDS011;64476;55.004;73.342;2023-05-07T07:27:53;22.42;;;2.63;;
69736;SDS011;64476;55.004;73.342;2023-05-07T07:30:56;34.58;;;3.00;;
69736;SDS011;64476;55.004;73.342;2023-05-07T07:33:58;8.87;;;2.53;;
69736;SDS011;64476;55.004;73.342;2023-05-07T07:37:00;9.43;;;2.63;;
69736;SDS011;64476;55.004;73.342;2023-05-07T07:40:06;18.50;;;2.65;;
69736;SDS011;64476;55.004;73.342;2023-05-07T07:46:12;16.10;;;2.53;;
69736;SDS011;64476;55.004;73.342;2023-05-07T07:49:14;18.58;;;2.63;;
69736;SDS011;64476;55.004;73.342;2023-05-07T07:52:18;30.20;;;3.37;;
69736;SDS011;64476;55.004;73.342;2023-05-07T07:55:22;10.35;;;2.20;;
69736;SDS011;64476;55.004;73.342;2023-05-07T07:58:26;11.98;;;2.35;;
69736;SDS011;64476;55.004;73.342;2023-05-07T08:01:30;20.53;;;3.03;;
69736;SDS011;64476;55.004;73.342;2023-05-07T08:04:33;9.35;;;2.20;;
69736;SDS011;64476;55.004;73.342;2023-05-07T08:07:37;15.65;;;2.58;;
69736;SDS011;64476;55.004;73.342;2023-05-07T08:10:40;15.47;;;2.53;;
69736;SDS011;64476;55.004;73.342;2023-05-07T08:13:49;18.33;;;2.40;;
69736;SDS011;64476;55.004;73.342;2023-05-07T08:16:51;6.60;;;2.40;;
69736;SDS011;64476;55.004;73.342;2023-05-07T08:19:53;32.50;;;3.17;;
69736;SDS011;64476;55.004;73.342;2023-05-07T08:22:55;16.60;;;2.40;;
69736;SDS011;64476;55.004;73.342;2023-05-07T08:25:57;8.75;;;1.98;;
69736;SDS011;64476;55.004;73.342;2023-05-07T08:29:00;19.38;;;2.88;;
69736;SDS011;64476;55.004;73.342;2023-05-07T08:32:01;14.70;;;2.33;;
69736;SDS011;64476;55.004;73.342;2023-05-07T08:35:03;16.85;;;2.42;;
69736;SDS011;64476;55.004;73.342;2023-05-07T08:38:06;15.53;;;2.47;;
69736;SDS011;64476;55.004;73.342;2023-05-07T08:41:09;30.45;;;3.58;;
69736;SDS011;64476;55.004;73.342;2023-05-07T08:44:13;22.75;;;2.20;;
69736;SDS011;64476;55.004;73.342;2023-05-07T08:47:42;18.75;;;2.70;;
69736;SDS011;64476;55.004;73.342;2023-05-07T08:50:50;14.90;;;2.45;;
69736;SDS011;64476;55.004;73.342;2023-05-07T08:53:53;12.30;;;2.30;;
69736;SDS011;64476;55.004;73.342;2023-05-07T08:57:09;9.40;;;2.30;;
69736;SDS011;64476;55.004;73.342;2023-05-07T09:00:13;13.35;;;3.00;;
69736;SDS011;64476;55.004;73.342;2023-05-07T09:03:17;13.93;;;2.07;;
69736;SDS011;64476;55.004;73.342;2023-05-07T09:06:24;5.60;;;2.35;;
69736;SDS011;64476;55.004;73.342;2023-05-07T09:09:26;13.38;;;2.17;;
69736;SDS011;64476;55.004;73.342;2023-05-07T09:12:30;19.37;;;2.47;;
69736;SDS011;64476;55.004;73.342;2023-05-07T09:15:32;29.10;;;2.53;;
69736;SDS011;64476;55.004;73.342;2023-05-07T09:18:34;52.33;;;4.07;;
69736;SDS011;64476;55.004;73.342;2023-05-07T09:21:38;24.80;;;3.05;;
69736;SDS011;64476;55.004;73.342;2023-05-07T09:24:47;212.05;;;12.93;;
69736;SDS011;64476;55.004;73.342;2023-05-07T09:27:51;10.52;;;2.60;;
69736;SDS011;64476;55.004;73.342;2023-05-07T09:30:53;12.50;;;2.42;;
69736;SDS011;64476;55.004;73.342;2023-05-07T09:33:57;10.32;;;2.67;;
69736;SDS011;64476;55.004;73.342;2023-05-07T09:37:03;29.98;;;3.22;;
69736;SDS011;64476;55.004;73.342;2023-05-07T09:40:07;31.83;;;3.00;;
69736;SDS011;64476;55.004;73.342;2023-05-07T09:43:10;28.00;;;3.03;;
69736;SDS011;64476;55.004;73.342;2023-05-07T09:46:30;26.90;;;3.33;;
69736;SDS011;64476;55.004;73.342;2023-05-07T09:49:48;10.18;;;2.60;;
69736;SDS011;64476;55.004;73.342;2023-05-07T09:52:55;15.97;;;3.43;;
69736;SDS011;64476;55.004;73.342;2023-05-07T09:55:59;5.95;;;2.33;;
69736;SDS011;64476;55.004;73.342;2023-05-07T09:59:01;27.20;;;3.22;;
69736;SDS011;64476;55.004;73.342;2023-05-07T10:02:07;20.80;;;2.70;;
69736;SDS011;64476;55.004;73.342;2023-05-07T10:05:21;13.70;;;2.55;;
69736;SDS011;64476;55.004;73.342;2023-05-07T10:08:27;7.30;;;2.10;;
69736;SDS011;64476;55.004;73.342;2023-05-07T10:11:35;15.23;;;1.98;;
69736;SDS011;64476;55.004;73.342;2023-05-07T10:14:38;22.55;;;2.75;;
69736;SDS011;64476;55.004;73.342;2023-05-07T10:18:14;12.95;;;2.97;;
69736;SDS011;64476;55.004;73.342;2023-05-07T10:21:24;19.48;;;2.60;;
69736;SDS011;64476;55.004;73.342;2023-05-07T10:24:33;23.80;;;2.58;;
69736;SDS011;64476;55.004;73.342;2023-05-07T10:27:41;21.27;;;3.10;;
69736;SDS011;64476;55.004;73.342;2023-05-07T10:34:12;12.30;;;2.38;;
69736;SDS011;64476;55.004;73.342;2023-05-07T10:37:19;100.97;;;8.53;;
69736;SDS011;64476;55.004;73.342;2023-05-07T10:40:21;85.87;;;5.63;;
69736;SDS011;64476;55.004;73.342;2023-05-07T10:43:24;96.38;;;8.93;;
69736;SDS011;64476;55.004;73.342;2023-05-07T10:46:34;59.08;;;5.57;;
69736;SDS011;64476;55.004;73.342;2023-05-07T10:53:21;117.22;;;8.10;;
69736;SDS011;64476;55.004;73.342;2023-05-07T10:56:37;21.80;;;3.35;;
69736;SDS011;64476;55.004;73.342;2023-05-07T10:59:47;10.40;;;2.40;;
69736;SDS011;64476;55.004;73.342;2023-05-07T11:06:24;50.44;;;5.06;;
69736;SDS011;64476;55.004;73.342;2023-05-07T11:12:54;9.63;;;2.90;;
69736;SDS011;64476;55.004;73.342;2023-05-07T11:16:15;26.97;;;3.67;;
69736;SDS011;64476;55.004;73.342;2023-05-07T11:19:47;22.38;;;3.95;;
69736;SDS011;64476;55.004;73.342;2023-05-07T11:23:12;11.68;;;2.92;;
69736;SDS011;64476;55.004;73.342;2023-05-07T11:26:59;23.38;;;4.57;;
69736;SDS011;64476;55.004;73.342;2023-05-07T11:30:05;12.52;;;3.25;;
69736;SDS011;64476;55.004;73.342;2023-05-07T11:33:08;11.83;;;2.93;;
69736;SDS011;64476;55.004;73.342;2023-05-07T11:36:13;18.92;;;3.80;;
69736;SDS011;64476;55.004;73.342;2023-05-07T11:39:24;12.63;;;3.72;;
69736;SDS011;64476;55.004;73.342;2023-05-07T11:42:31;135.52;;;7.90;;
69736;SDS011;64476;55.004;73.342;2023-05-07T11:45:40;51.50;;;5.38;;
69736;SDS011;64476;55.004;73.342;2023-05-07T11:48:42;34.10;;;4.00;;
69736;SDS011;64476;55.004;73.342;2023-05-07T11:51:44;22.88;;;4.18;;
69736;SDS011;64476;55.004;73.342;2023-05-07T11:54:51;46.42;;;5.30;;
69736;SDS011;64476;55.004;73.342;2023-05-07T11:57:56;17.83;;;4.10;;
69736;SDS011;64476;55.004;73.342;2023-05-07T12:00:58;17.58;;;3.40;;
69736;SDS011;64476;55.004;73.342;2023-05-07T12:04:00;11.87;;;3.67;;
69736;SDS011;64476;55.004;73.342;2023-05-07T12:07:10;41.72;;;4.95;;
69736;SDS011;64476;55.004;73.342;2023-05-07T12:10:14;10.35;;;3.60;;
69736;SDS011;64476;55.004;73.342;2023-05-07T12:16:29;17.59;;;3.83;;
69736;SDS011;64476;55.004;73.342;2023-05-07T12:19:32;11.15;;;3.30;;
69736;SDS011;64476;55.004;73.342;2023-05-07T12:22:37;17.92;;;4.03;;
69736;SDS011;64476;55.004;73.342;2023-05-07T12:25:39;10.45;;;3.58;;
69736;SDS011;64476;55.004;73.342;2023-05-07T12:28:48;8.43;;;3.10;;
69736;SDS011;64476;55.004;73.342;2023-05-07T12:31:50;25.67;;;3.85;;
69736;SDS011;64476;55.004;73.342;2023-05-07T12:34:52;23.83;;;4.05;;
69736;SDS011;64476;55.004;73.342;2023-05-07T12:37:56;8.43;;;3.93;;
69736;SDS011;64476;55.004;73.342;2023-05-07T12:41:00;28.33;;;4.40;;
69736;SDS011;64476;55.004;73.342;2023-05-07T12:44:07;23.05;;;3.80;;
69736;SDS011;64476;55.004;73.342;2023-05-07T12:47:08;23.90;;;4.03;;
69736;SDS011;64476;55.004;73.342;2023-05-07T12:50:10;19.23;;;3.55;;
69736;SDS011;64476;55.004;73.342;2023-05-07T12:53:12;12.52;;;3.65;;
69736;SDS011;64476;55.004;73.342;2023-05-07T12:56:24;11.32;;;3.32;;
69736;SDS011;64476;55.004;73.342;2023-05-07T12:59:46;12.75;;;3.95;;
69736;SDS011;64476;55.004;73.342;2023-05-07T13:02:47;23.92;;;4.50;;
69736;SDS011;64476;55.004;73.342;2023-05-07T13:05:49;24.95;;;4.22;;
69736;SDS011;64476;55.004;73.342;2023-05-07T13:08:51;14.03;;;3.87;;
69736;SDS011;64476;55.004;73.342;2023-05-07T13:11:53;10.43;;;4.47;;
69736;SDS011;64476;55.004;73.342;2023-05-07T13:14:55;29.75;;;4.28;;
69736;SDS011;64476;55.004;73.342;2023-05-07T13:18:00;19.83;;;3.78;;
69736;SDS011;64476;55.004;73.342;2023-05-07T13:21:24;29.98;;;5.25;;
69736;SDS011;64476;55.004;73.342;2023-05-07T13:24:29;29.25;;;4.90;;
69736;SDS011;64476;55.004;73.342;2023-05-07T13:27:30;20.45;;;4.30;;
69736;SDS011;64476;55.004;73.342;2023-05-07T13:30:32;18.08;;;4.63;;
69736;SDS011;64476;55.004;73.342;2023-05-07T13:33:34;24.23;;;4.97;;
69736;SDS011;64476;55.004;73.342;2023-05-07T13:36:37;17.05;;;4.85;;
69736;SDS011;64476;55.004;73.342;2023-05-07T13:39:42;24.25;;;5.40;;
69736;SDS011;64476;55.004;73.342;2023-05-07T13:42:45;19.98;;;5.40;;
69736;SDS011;64476;55.004;73.342;2023-05-07T13:45:47;20.55;;;4.95;;
69736;SDS011;64476;55.004;73.342;2023-05-07T13:48:49;12.50;;;4.45;;
69736;SDS011;64476;55.004;73.342;2023-05-07T13:51:52;14.80;;;5.10;;
69736;SDS011;64476;55.004;73.342;2023-05-07T13:54:58;30.05;;;5.22;;
69736;SDS011;64476;55.004;73.342;2023-05-07T13:58:00;16.48;;;4.75;;
69736;SDS011;64476;55.004;73.342;2023-05-07T14:01:04;14.02;;;5.13;;
69736;SDS011;64476;55.004;73.342;2023-05-07T14:04:07;9.05;;;4.88;;
69736;SDS011;64476;55.004;73.342;2023-05-07T14:07:10;11.88;;;5.30;;
69736;SDS011;64476;55.004;73.342;2023-05-07T14:10:12;21.13;;;5.50;;
69736;SDS011;64476;55.004;73.342;2023-05-07T14:13:14;24.42;;;5.68;;
69736;SDS011;64476;55.004;73.342;2023-05-07T14:16:23;24.91;;;6.60;;
69736;SDS011;64476;55.004;73.342;2023-05-07T14:19:25;34.47;;;7.43;;
69736;SDS011;64476;55.004;73.342;2023-05-07T14:22:27;36.28;;;7.85;;
69736;SDS011;64476;55.004;73.342;2023-05-07T14:25:29;32.90;;;6.30;;
69736;SDS011;64476;55.004;73.342;2023-05-07T14:28:30;26.77;;;8.43;;
69736;SDS011;64476;55.004;73.342;2023-05-07T14:31:37;33.43;;;8.67;;
69736;SDS011;64476;55.004;73.342;2023-05-07T14:35:11;29.10;;;9.55;;
69736;SDS011;64476;55.004;73.342;2023-05-07T14:38:13;35.92;;;9.43;;
69736;SDS011;64476;55.004;73.342;2023-05-07T14:41:24;26.48;;;9.08;;
69736;SDS011;64476;55.004;73.342;2023-05-07T14:44:25;54.38;;;10.98;;
69736;SDS011;64476;55.004;73.342;2023-05-07T14:47:28;25.98;;;9.40;;
69736;SDS011;64476;55.004;73.342;2023-05-07T14:50:30;29.77;;;9.60;;
69736;SDS011;64476;55.004;73.342;2023-05-07T14:54:10;46.25;;;11.23;;
69736;SDS011;64476;55.004;73.342;2023-05-07T14:57:13;37.58;;;10.65;;
69736;SDS011;64476;55.004;73.342;2023-05-07T15:00:17;35.85;;;11.02;;
69736;SDS011;64476;55.004;73.342;2023-05-07T15:03:19;71.15;;;14.32;;
69736;SDS011;64476;55.004;73.342;2023-05-07T15:06:23;73.88;;;15.35;;
69736;SDS011;64476;55.004;73.342;2023-05-07T15:09:26;49.85;;;14.65;;
69736;SDS011;64476;55.004;73.342;2023-05-07T15:12:28;58.42;;;17.67;;
69736;SDS011;64476;55.004;73.342;2023-05-07T15:15:29;59.17;;;16.83;;
69736;SDS011;64476;55.004;73.342;2023-05-07T15:18:32;55.17;;;19.10;;
69736;SDS011;64476;55.004;73.342;2023-05-07T15:21:33;53.80;;;15.60;;
69736;SDS011;64476;55.004;73.342;2023-05-07T15:24:37;60.05;;;15.82;;
69736;SDS011;64476;55.004;73.342;2023-05-07T15:27:38;67.15;;;16.48;;
69736;SDS011;64476;55.004;73.342;2023-05-07T15:30:40;61.58;;;18.42;;
69736;SDS011;64476;55.004;73.342;2023-05-07T15:33:41;56.38;;;18.42;;
69736;SDS011;64476;55.004;73.342;2023-05-07T15:36:43;69.45;;;17.13;;
69736;SDS011;64476;55.004;73.342;2023-05-07T15:43:22;75.18;;;19.73;;
69736;SDS011;64476;55.004;73.342;2023-05-07T15:46:24;109.63;;;22.15;;
69736;SDS011;64476;55.004;73.342;2023-05-07T15:49:30;75.03;;;20.17;;
69736;SDS011;64476;55.004;73.342;2023-05-07T15:53:05;57.88;;;17.75;;
69736;SDS011;64476;55.004;73.342;2023-05-07T15:56:08;72.07;;;20.85;;
69736;SDS011;64476;55.004;73.342;2023-05-07T15:59:10;79.63;;;19.67;;
69736;SDS011;64476;55.004;73.342;2023-05-07T16:02:12;64.40;;;20.33;;
69736;SDS011;64476;55.004;73.342;2023-05-07T16:05:14;72.60;;;19.55;;
69736;SDS011;64476;55.004;73.342;2023-05-07T16:08:16;54.67;;;18.63;;
69736;SDS011;64476;55.004;73.342;2023-05-07T16:11:24;58.90;;;20.80;;
69736;SDS011;64476;55.004;73.342;2023-05-07T16:14:25;58.60;;;20.65;;
69736;SDS011;64476;55.004;73.342;2023-05-07T16:17:27;81.70;;;21.38;;
69736;SDS011;64476;55.004;73.342;2023-05-07T16:20:29;64.50;;;20.00;;
69736;SDS011;64476;55.004;73.342;2023-05-07T16:23:31;59.25;;;22.98;;
69736;SDS011;64476;55.004;73.342;2023-05-07T16:26:33;56.83;;;20.90;;
69736;SDS011;64476;55.004;73.342;2023-05-07T16:29:34;64.15;;;19.38;;
69736;SDS011;64476;55.004;73.342;2023-05-07T16:33:08;46.07;;;19.30;;
69736;SDS011;64476;55.004;73.342;2023-05-07T16:36:10;57.92;;;19.45;;
69736;SDS011;64476;55.004;73.342;2023-05-07T16:39:11;73.65;;;19.45;;
69736;SDS011;64476;55.004;73.342;2023-05-07T16:42:13;40.65;;;18.23;;
69736;SDS011;64476;55.004;73.342;2023-05-07T16:45:15;51.90;;;17.58;;
69736;SDS011;64476;55.004;73.342;2023-05-07T16:48:53;68.38;;;18.67;;
69736;SDS011;64476;55.004;73.342;2023-05-07T16:51:55;45.83;;;17.73;;
69736;SDS011;64476;55.004;73.342;2023-05-07T16:58:08;47.40;;;16.20;;
69736;SDS011;64476;55.004;73.342;2023-05-07T17:01:11;45.70;;;16.45;;
69736;SDS011;64476;55.004;73.342;2023-05-07T17:04:14;46.75;;;15.10;;
69736;SDS011;64476;55.004;73.342;2023-05-07T17:07:16;48.65;;;15.65;;
69736;SDS011;64476;55.004;73.342;2023-05-07T17:10:19;59.35;;;15.30;;
69736;SDS011;64476;55.004;73.342;2023-05-07T17:16:29;44.42;;;14.73;;
69736;SDS011;64476;55.004;73.342;2023-05-07T17:19:31;53.08;;;14.85;;
69736;SDS011;64476;55.004;73.342;2023-05-07T17:22:33;41.53;;;14.27;;
69736;SDS011;64476;55.004;73.342;2023-05-07T17:25:34;36.00;;;13.18;;
69736;SDS011;64476;55.004;73.342;2023-05-07T17:28:37;53.70;;;14.20;;
69736;SDS011;64476;55.004;73.342;2023-05-07T17:31:38;36.10;;;12.48;;
69736;SDS011;64476;55.004;73.342;2023-05-07T17:34:40;36.85;;;11.13;;
69736;SDS011;64476;55.004;73.342;2023-05-07T17:37:42;41.10;;;11.43;;
69736;SDS011;64476;55.004;73.342;2023-05-07T17:40:49;30.35;;;10.38;;
69736;SDS011;64476;55.004;73.342;2023-05-07T17:46:53;32.85;;;10.68;;
69736;SDS011;64476;55.004;73.342;2023-05-07T17:49:55;34.15;;;9.27;;
69736;SDS011;64476;55.004;73.342;2023-05-07T17:52:57;36.37;;;10.43;;
69736;SDS011;64476;55.004;73.342;2023-05-07T17:55:58;30.98;;;9.82;;
69736;SDS011;64476;55.004;73.342;2023-05-07T17:59:00;22.48;;;9.15;;
69736;SDS011;64476;55.004;73.342;2023-05-07T18:02:02;31.25;;;9.27;;
69736;SDS011;64476;55.004;73.342;2023-05-07T18:05:04;33.50;;;8.55;;
69736;SDS011;64476;55.004;73.342;2023-05-07T18:08:07;39.83;;;8.63;;
69736;SDS011;64476;55.004;73.342;2023-05-07T18:11:12;26.15;;;8.63;;
69736;SDS011;64476;55.004;73.342;2023-05-07T18:14:17;28.02;;;9.27;;
69736;SDS011;64476;55.004;73.342;2023-05-07T18:17:25;33.10;;;8.57;;
69736;SDS011;64476;55.004;73.342;2023-05-07T18:20:28;34.65;;;8.65;;
69736;SDS011;64476;55.004;73.342;2023-05-07T18:23:30;41.88;;;8.82;;
69736;SDS011;64476;55.004;73.342;2023-05-07T18:26:33;53.58;;;8.63;;
69736;SDS011;64476;55.004;73.342;2023-05-07T18:29:35;26.92;;;8.52;;
69736;SDS011;64476;55.004;73.342;2023-05-07T18:32:37;38.08;;;9.15;;
69736;SDS011;64476;55.004;73.342;2023-05-07T18:35:38;33.67;;;8.48;;
69736;SDS011;64476;55.004;73.342;2023-05-07T18:38:40;26.65;;;7.88;;
69736;SDS011;64476;55.004;73.342;2023-05-07T18:41:42;29.27;;;8.53;;
69736;SDS011;64476;55.004;73.342;2023-05-07T18:44:45;34.03;;;8.23;;
69736;SDS011;64476;55.004;73.342;2023-05-07T18:47:47;27.48;;;8.95;;